createdAt,value
2018-12-30T00:04:29.045Z,12.45
2018-12-30T00:07:10.654Z,12.75
2018-12-30T00:09:51.587Z,12.85
2018-12-30T00:12:32.116Z,12.28
2018-12-30T00:15:12.840Z,12.18
2018-12-30T00:17:53.323Z,12.43
2018-12-30T00:20:34.171Z,13.08
2018-12-30T00:23:14.982Z,12.40
2018-12-30T00:25:56.680Z,13.30
2018-12-30T00:28:36.963Z,13.18
2018-12-30T00:31:17.965Z,12.68
2018-12-30T00:33:59.311Z,13.20
2018-12-30T00:36:40.452Z,13.40
2018-12-30T00:39:21.856Z,13.15
2018-12-30T00:42:02.595Z,12.82
2018-12-30T00:44:43.308Z,13.05
2018-12-30T00:47:24.731Z,13.10
2018-12-30T00:50:05.247Z,13.43
2018-12-30T00:52:46.123Z,13.93
2018-12-30T00:55:27.047Z,13.70
2018-12-30T00:58:07.391Z,13.30
2018-12-30T01:00:48.119Z,14.00
2018-12-30T01:03:28.511Z,14.30
2018-12-30T01:06:09.575Z,14.53
2018-12-30T01:08:51.193Z,14.07
2018-12-30T01:11:31.814Z,14.00
2018-12-30T01:14:12.561Z,14.47
2018-12-30T01:16:53.089Z,14.10
2018-12-30T01:19:33.713Z,14.13
2018-12-30T01:22:14.839Z,14.47
2018-12-30T01:24:55.550Z,14.38
2018-12-30T01:27:36.875Z,14.25
2018-12-30T01:30:17.256Z,14.00
2018-12-30T01:32:57.949Z,13.83
2018-12-30T01:35:38.861Z,13.75
2018-12-30T01:38:19.900Z,13.78
2018-12-30T01:41:00.753Z,12.68
2018-12-30T01:43:41.772Z,12.40
2018-12-30T01:46:22.484Z,12.78
2018-12-30T01:49:03.324Z,12.30
2018-12-30T01:51:44.560Z,12.55
2018-12-30T01:54:26.544Z,12.70
2018-12-30T01:57:08.365Z,12.50
2018-12-30T01:59:49.409Z,11.40
2018-12-30T02:02:30.054Z,12.30
2018-12-30T02:05:11.083Z,9.83
2018-12-30T02:07:52.057Z,10.00
2018-12-30T02:10:32.469Z,9.63
2018-12-30T02:13:13.404Z,9.28
2018-12-30T02:15:53.948Z,8.75
2018-12-30T02:18:35.063Z,9.38
2018-12-30T02:21:15.868Z,7.70
2018-12-30T02:23:56.745Z,6.92
2018-12-30T02:26:38.148Z,5.90
2018-12-30T02:29:18.892Z,5.37
2018-12-30T02:31:59.577Z,5.17
2018-12-30T02:34:40.312Z,4.90
2018-12-30T02:37:21.471Z,4.55
2018-12-30T02:40:02.189Z,4.30
2018-12-30T02:42:43.371Z,4.33
2018-12-30T02:45:23.724Z,4.00
2018-12-30T02:48:04.105Z,3.80
2018-12-30T02:50:44.797Z,3.60
2018-12-30T02:53:25.776Z,3.90
2018-12-30T02:56:06.518Z,3.73
2018-12-30T02:58:48.389Z,4.17
2018-12-30T03:01:29.105Z,3.98
2018-12-30T03:04:09.536Z,4.30
2018-12-30T03:06:50.348Z,4.40
2018-12-30T03:09:31.349Z,4.37
2018-12-30T03:12:12.789Z,4.30
2018-12-30T03:14:53.931Z,4.47
2018-12-30T03:17:34.877Z,4.35
2018-12-30T03:20:15.711Z,4.15
2018-12-30T03:22:56.593Z,4.28
2018-12-30T03:25:37.806Z,4.35
2018-12-30T03:28:18.664Z,4.45
2018-12-30T03:30:59.430Z,4.20
2018-12-30T03:33:40.515Z,3.87
2018-12-30T03:36:22.042Z,4.00
2018-12-30T03:39:02.405Z,4.40
2018-12-30T03:41:43.325Z,4.00
2018-12-30T03:44:24.489Z,4.20
2018-12-30T03:47:05.368Z,4.30
2018-12-30T03:49:46.175Z,4.47
2018-12-30T03:52:27.644Z,4.25
2018-12-30T03:55:08.250Z,4.70
2018-12-30T03:57:49.457Z,4.40
2018-12-30T04:00:30.065Z,4.30
2018-12-30T04:03:10.704Z,4.30
2018-12-30T04:05:51.358Z,4.37
2018-12-30T04:08:31.996Z,4.22
2018-12-30T04:11:12.814Z,4.47
2018-12-30T04:13:53.301Z,4.50
2018-12-30T04:16:33.953Z,4.78
2018-12-30T04:19:14.709Z,4.77
2018-12-30T04:21:55.353Z,4.53
2018-12-30T04:24:36.142Z,4.45
2018-12-30T04:27:17.200Z,4.67
2018-12-30T04:29:58.174Z,4.42
2018-12-30T04:32:39.005Z,4.70
2018-12-30T04:35:19.580Z,4.30
2018-12-30T04:38:00.300Z,5.00
2018-12-30T04:40:41.026Z,4.70
2018-12-30T04:43:21.501Z,4.70
2018-12-30T04:46:02.403Z,4.83
2018-12-30T04:48:43.012Z,4.85
2018-12-30T04:51:23.673Z,4.90
2018-12-30T04:54:04.233Z,4.90
2018-12-30T04:56:45.144Z,4.90
2018-12-30T04:59:25.510Z,5.10
2018-12-30T05:02:06.167Z,4.60
2018-12-30T05:04:46.694Z,4.80
2018-12-30T05:07:27.421Z,4.95
2018-12-30T05:10:07.872Z,4.83
2018-12-30T05:12:48.540Z,5.00
2018-12-30T05:15:29.184Z,5.08
2018-12-30T05:18:10.057Z,5.23
2018-12-30T05:20:51.141Z,5.20
2018-12-30T05:23:31.894Z,4.93
2018-12-30T05:26:12.665Z,4.90
2018-12-30T05:28:53.654Z,5.33
2018-12-30T05:31:34.457Z,5.50
2018-12-30T05:34:15.190Z,5.17
2018-12-30T05:36:55.823Z,5.20
2018-12-30T05:39:36.577Z,5.40
2018-12-30T05:42:24.629Z,5.75
2018-12-30T05:45:05.522Z,6.30
2018-12-30T05:47:46.544Z,5.72
2018-12-30T05:50:27.405Z,5.85
2018-12-30T05:55:56.936Z,5.50
2018-12-30T05:58:37.696Z,6.40
2018-12-30T06:01:18.689Z,5.97
2018-12-30T06:03:59.311Z,6.00
2018-12-30T06:06:40.064Z,5.67
2018-12-30T06:09:24.321Z,5.87
2018-12-30T06:12:05.011Z,6.10
2018-12-30T06:14:46.577Z,5.80
2018-12-30T06:17:27.210Z,6.00
2018-12-30T06:20:08.267Z,5.05
2018-12-30T06:22:49.769Z,5.72
2018-12-30T06:25:30.692Z,5.73
2018-12-30T06:28:11.452Z,6.50
2018-12-30T06:30:51.989Z,5.37
2018-12-30T06:33:32.888Z,5.55
2018-12-30T06:36:14.187Z,5.55
2018-12-30T06:38:55.045Z,6.12
2018-12-30T06:41:35.702Z,5.85
2018-12-30T06:44:16.598Z,5.50
2018-12-30T06:46:57.428Z,5.72
2018-12-30T06:49:37.935Z,6.03
2018-12-30T06:52:19.260Z,6.22
2018-12-30T06:54:59.951Z,6.20
2018-12-30T06:57:41.384Z,6.53
2018-12-30T07:00:21.991Z,6.70
2018-12-30T07:03:02.855Z,7.22
2018-12-30T07:05:43.574Z,7.30
2018-12-30T07:08:24.656Z,7.30
2018-12-30T07:11:05.419Z,7.10
2018-12-30T07:13:46.295Z,7.40
2018-12-30T07:16:27.566Z,7.05
2018-12-30T07:19:08.343Z,7.40
2018-12-30T07:21:49.141Z,7.37
2018-12-30T07:24:29.939Z,7.20
2018-12-30T07:27:10.861Z,7.42
2018-12-30T07:29:51.990Z,7.50
2018-12-30T07:32:32.611Z,7.08
2018-12-30T07:35:14.204Z,6.53
2018-12-30T07:37:55.572Z,6.83
2018-12-30T07:40:36.312Z,6.95
2018-12-30T07:43:16.921Z,6.20
2018-12-30T07:45:58.197Z,6.03
2018-12-30T07:48:39.092Z,5.50
2018-12-30T07:51:20.177Z,5.90
2018-12-30T07:54:00.840Z,5.65
2018-12-30T07:56:41.848Z,5.67
2018-12-30T07:59:22.552Z,6.67
2018-12-30T08:02:03.384Z,6.15
2018-12-30T08:04:44.152Z,7.00
2018-12-30T08:07:24.788Z,6.08
2018-12-30T08:10:05.546Z,6.00
2018-12-30T08:12:46.229Z,6.30
2018-12-30T08:15:27.078Z,6.50
2018-12-30T08:18:08.047Z,6.67
2018-12-30T08:20:48.412Z,6.78
2018-12-30T08:23:28.940Z,7.50
2018-12-30T08:26:09.626Z,6.90
2018-12-30T08:28:51.693Z,6.60
2018-12-30T08:31:32.246Z,7.05
2018-12-30T08:34:13.106Z,7.10
2018-12-30T08:36:54.524Z,7.42
2018-12-30T08:39:35.983Z,7.30
2018-12-30T08:42:17.121Z,7.67
2018-12-30T08:44:58.121Z,7.28
2018-12-30T08:47:39.328Z,8.15
2018-12-30T08:50:20.125Z,8.30
2018-12-30T08:53:00.936Z,8.48
2018-12-30T08:55:42.246Z,8.55
2018-12-30T08:58:23.020Z,9.18
2018-12-30T09:01:04.055Z,9.33
2018-12-30T09:03:44.582Z,9.33
2018-12-30T09:06:25.332Z,9.60
2018-12-30T09:09:06.034Z,9.05
2018-12-30T09:11:46.615Z,9.10
2018-12-30T09:14:27.800Z,8.47
2018-12-30T09:17:08.604Z,8.60
2018-12-30T09:19:49.652Z,8.30
2018-12-30T09:22:30.859Z,8.00
2018-12-30T09:25:12.264Z,8.38
2018-12-30T09:27:53.131Z,7.28
2018-12-30T09:30:34.081Z,7.53
2018-12-30T09:33:14.561Z,7.90
2018-12-30T09:35:55.214Z,8.50
2018-12-30T09:38:35.894Z,7.72
2018-12-30T09:41:16.396Z,7.60
2018-12-30T09:43:57.123Z,7.80
2018-12-30T09:46:37.508Z,7.72
2018-12-30T09:49:18.200Z,7.95
2018-12-30T09:51:59.120Z,7.80
2018-12-30T09:54:40.357Z,7.90
2018-12-30T09:57:21.851Z,7.60
2018-12-30T10:00:02.576Z,7.87
2018-12-30T10:02:43.135Z,7.92
2018-12-30T10:05:23.433Z,7.57
2018-12-30T10:08:04.317Z,7.62
2018-12-30T10:10:45.218Z,8.00
2018-12-30T10:13:25.784Z,8.33
2018-12-30T10:16:06.564Z,8.15
2018-12-30T10:18:47.220Z,7.97
2018-12-30T10:21:28.269Z,8.50
2018-12-30T10:24:09.209Z,8.13
2018-12-30T10:26:50.209Z,8.20
2018-12-30T10:29:30.902Z,8.73
2018-12-30T10:32:11.613Z,8.60
2018-12-30T10:34:52.414Z,8.65
2018-12-30T10:37:33.083Z,12.78
2018-12-30T10:40:14.182Z,9.60
2018-12-30T10:42:54.781Z,9.73
2018-12-30T10:45:35.925Z,9.58
2018-12-30T10:48:16.945Z,8.73
2018-12-30T10:50:57.699Z,9.18
2018-12-30T10:53:38.500Z,9.40
2018-12-30T10:56:19.980Z,8.48
2018-12-30T10:59:00.457Z,9.50
2018-12-30T11:01:41.003Z,8.78
2018-12-30T11:04:21.877Z,9.00
2018-12-30T11:07:02.848Z,8.45
2018-12-30T11:09:44.140Z,8.90
2018-12-30T11:12:24.685Z,8.73
2018-12-30T11:15:05.448Z,10.53
2018-12-30T11:17:46.117Z,8.03
2018-12-30T11:20:26.753Z,8.13
2018-12-30T11:23:07.460Z,7.95
2018-12-30T11:25:48.314Z,9.15
2018-12-30T11:28:29.348Z,9.10
2018-12-30T11:31:10.281Z,8.70
2018-12-30T11:33:51.306Z,8.65
2018-12-30T11:36:32.109Z,8.30
2018-12-30T11:39:12.913Z,8.83
2018-12-30T11:41:54.827Z,8.83
2018-12-30T11:44:35.485Z,8.95
2018-12-30T11:47:16.345Z,8.13
2018-12-30T11:49:56.864Z,7.28
2018-12-30T11:55:31.868Z,6.65
2018-12-30T11:58:12.560Z,7.37
2018-12-30T12:00:53.223Z,7.30
2018-12-30T12:03:34.144Z,6.72
2018-12-30T12:06:14.980Z,6.40
2018-12-30T12:08:55.689Z,6.67
2018-12-30T12:11:36.418Z,5.70
2018-12-30T12:14:17.505Z,5.33
2018-12-30T12:16:58.207Z,5.60
2018-12-30T12:19:39.168Z,4.85
2018-12-30T12:22:20.462Z,4.72
2018-12-30T12:25:01.413Z,4.85
2018-12-30T12:27:42.130Z,4.75
2018-12-30T12:30:22.877Z,4.05
2018-12-30T12:33:03.720Z,4.55
2018-12-30T12:35:45.019Z,4.00
2018-12-30T12:38:26.290Z,4.47
2018-12-30T12:41:06.596Z,4.08
2018-12-30T12:43:47.671Z,4.30
2018-12-30T12:46:28.388Z,4.07
2018-12-30T12:49:09.169Z,4.03
2018-12-30T12:51:49.474Z,4.10
2018-12-30T12:54:32.241Z,4.03
2018-12-30T13:06:55.095Z,3.90
2018-12-30T13:09:35.963Z,3.70
2018-12-30T13:12:16.966Z,3.75
2018-12-30T13:14:57.720Z,3.65
2018-12-30T13:17:38.509Z,3.87
2018-12-30T13:20:19.401Z,3.87
2018-12-30T13:23:00.245Z,4.08
2018-12-30T13:25:41.273Z,4.10
2018-12-30T13:28:10.737Z,4.15
2018-12-30T13:30:58.774Z,4.20
2018-12-30T13:33:46.832Z,3.97
2018-12-30T13:36:34.933Z,4.47
2018-12-30T13:39:23.032Z,4.85
2018-12-30T13:42:11.103Z,4.95
2018-12-30T13:44:51.789Z,4.87
2018-12-30T13:47:32.600Z,4.97
2018-12-30T13:50:13.402Z,5.25
2018-12-30T13:52:54.305Z,5.25
2018-12-30T13:55:35.056Z,5.60
2018-12-30T13:58:15.895Z,5.15
2018-12-30T14:00:56.981Z,5.55
2018-12-30T14:03:38.255Z,5.08
2018-12-30T14:06:19.353Z,5.03
2018-12-30T14:09:00.410Z,5.37
2018-12-30T14:11:40.909Z,5.17
2018-12-30T14:14:21.975Z,5.50
2018-12-30T14:17:02.491Z,5.65
2018-12-30T14:19:31.721Z,5.33
2018-12-30T14:22:19.697Z,5.42
2018-12-30T14:25:07.838Z,5.50
2018-12-30T14:27:55.807Z,6.10
2018-12-30T14:30:44.091Z,5.83
2018-12-30T14:33:32.113Z,5.70
2018-12-30T14:36:20.144Z,5.75
2018-12-30T14:39:08.268Z,5.95
2018-12-30T14:41:56.274Z,5.70
2018-12-30T14:44:37.050Z,5.50
2018-12-30T14:47:18.416Z,6.17
2018-12-30T14:49:47.560Z,5.93
2018-12-30T14:52:36.216Z,6.00
2018-12-30T14:55:24.204Z,6.17
2018-12-30T14:58:12.222Z,6.00
2018-12-30T15:01:00.528Z,6.50
2018-12-30T15:03:48.605Z,6.30
2018-12-30T15:06:17.657Z,6.53
2018-12-30T15:09:07.084Z,6.47
2018-12-30T15:11:57.661Z,6.50
2018-12-30T15:14:45.799Z,6.87
2018-12-30T15:17:33.945Z,6.75
2018-12-30T15:20:21.920Z,7.85
2018-12-30T15:23:09.922Z,7.53
2018-12-30T15:25:58.098Z,7.78
2018-12-30T15:28:47.148Z,7.83
2018-12-30T15:31:36.281Z,7.85
2018-12-30T15:34:26.090Z,7.72
2018-12-30T15:37:14.405Z,8.58
2018-12-30T15:40:02.470Z,8.80
2018-12-30T15:42:50.464Z,8.45
2018-12-30T15:45:30.970Z,8.98
2018-12-30T15:48:11.807Z,9.10
2018-12-30T15:50:54.517Z,8.80
2018-12-30T15:53:35.234Z,8.80
2018-12-30T15:56:15.844Z,8.75
2018-12-30T15:58:56.699Z,9.07
2018-12-30T16:01:37.803Z,8.80
2018-12-30T16:04:18.475Z,9.17
2018-12-30T16:06:59.139Z,9.95
2018-12-30T16:09:40.053Z,9.73
2018-12-30T16:12:21.439Z,9.38
2018-12-30T16:15:02.686Z,9.60
2018-12-30T16:17:43.864Z,9.35
2018-12-30T16:20:24.579Z,9.88
2018-12-30T16:23:05.450Z,9.43
2018-12-30T16:25:46.485Z,9.70
2018-12-30T16:28:26.805Z,10.70
2018-12-30T16:31:07.554Z,10.18
2018-12-30T16:33:48.584Z,9.40
2018-12-30T16:36:29.950Z,9.18
2018-12-30T16:39:10.946Z,9.45
2018-12-30T16:41:51.872Z,9.93
2018-12-30T16:44:32.849Z,9.23
2018-12-30T16:47:13.602Z,9.23
2018-12-30T16:49:54.481Z,9.40
2018-12-30T16:55:47.913Z,8.98
2018-12-30T16:58:28.361Z,9.28
2018-12-30T17:01:09.120Z,9.58
2018-12-30T17:03:49.553Z,8.68
2018-12-30T17:06:33.917Z,9.28
2018-12-30T17:09:12.846Z,9.40
2018-12-30T17:11:53.697Z,9.20
2018-12-30T17:14:34.560Z,8.88
2018-12-30T17:17:15.177Z,9.30
2018-12-30T17:19:56.148Z,8.98
2018-12-30T17:22:37.312Z,8.88
2018-12-30T17:25:18.320Z,9.08
2018-12-30T17:27:58.784Z,9.05
2018-12-30T17:30:39.545Z,8.80
2018-12-30T17:33:20.291Z,9.07
2018-12-30T17:36:00.913Z,9.13
2018-12-30T17:38:41.452Z,9.28
2018-12-30T17:41:21.901Z,9.33
2018-12-30T17:44:02.822Z,9.33
2018-12-30T17:46:43.457Z,9.30
2018-12-30T17:49:24.228Z,9.00
2018-12-30T17:52:04.741Z,8.73
2018-12-30T17:54:45.455Z,9.00
2018-12-30T17:57:26.256Z,8.93
2018-12-30T18:00:07.098Z,8.87
2018-12-30T18:02:50.520Z,8.90
2018-12-30T18:05:31.657Z,8.30
2018-12-30T18:08:12.644Z,8.63
2018-12-30T18:10:53.268Z,9.03
2018-12-30T18:13:33.799Z,9.10
2018-12-30T18:16:14.532Z,9.33
2018-12-30T18:18:55.328Z,9.35
2018-12-30T18:21:36.202Z,9.45
2018-12-30T18:24:16.857Z,8.78
2018-12-30T18:26:58.722Z,9.83
2018-12-30T18:29:39.852Z,9.75
2018-12-30T18:32:20.549Z,9.50
2018-12-30T18:35:01.472Z,9.45
2018-12-30T18:37:42.391Z,9.98
2018-12-30T18:40:23.325Z,12.47
2018-12-30T18:43:04.503Z,11.43
2018-12-30T18:45:46.033Z,10.30
2018-12-30T18:48:26.761Z,9.55
2018-12-30T18:51:08.221Z,9.98
2018-12-30T18:53:56.477Z,9.98
2018-12-30T18:56:44.581Z,9.78
2018-12-30T18:59:32.902Z,10.00
2018-12-30T19:02:21.404Z,10.50
2018-12-30T19:05:09.455Z,10.90
2018-12-30T19:07:58.005Z,10.83
2018-12-30T19:10:46.115Z,10.72
2018-12-30T19:13:34.085Z,11.30
2018-12-30T19:16:22.102Z,10.53
2018-12-30T19:19:10.104Z,11.33
2018-12-30T19:21:58.173Z,11.10
2018-12-30T19:24:46.360Z,11.83
2018-12-30T19:27:34.329Z,11.80
2018-12-30T19:30:22.342Z,11.35
2018-12-30T19:33:10.315Z,11.38
2018-12-30T19:35:58.284Z,11.83
2018-12-30T19:38:46.351Z,11.30
2018-12-30T19:41:34.493Z,12.00
2018-12-30T19:47:09.813Z,11.65
2018-12-30T19:49:50.406Z,11.48
2018-12-30T19:52:31.102Z,11.73
2018-12-30T19:55:11.716Z,11.93
2018-12-30T19:57:52.777Z,11.38
2018-12-30T20:00:33.890Z,12.00
2018-12-30T20:03:14.644Z,11.90
2018-12-30T20:05:55.385Z,12.17
2018-12-30T20:08:36.229Z,11.60
2018-12-30T20:11:17.333Z,12.18
2018-12-30T20:13:58.011Z,11.43
2018-12-30T20:16:38.979Z,12.18
2018-12-30T20:19:19.964Z,12.28
2018-12-30T20:22:00.588Z,12.73
2018-12-30T20:24:41.127Z,13.03
2018-12-30T20:30:11.352Z,13.15
2018-12-30T20:32:51.990Z,13.10
2018-12-30T20:35:32.579Z,14.30
2018-12-30T20:38:13.273Z,14.18
2018-12-30T20:40:53.958Z,15.60
2018-12-30T20:43:34.864Z,15.93
2018-12-30T20:46:15.257Z,16.02
2018-12-30T20:48:55.989Z,16.07
2018-12-30T20:51:36.729Z,16.10
2018-12-30T20:54:17.457Z,16.40
2018-12-30T20:56:58.359Z,16.42
2018-12-30T20:59:39.270Z,18.45
2018-12-30T21:02:08.978Z,18.82
2018-12-30T21:07:51.843Z,17.87
2018-12-30T21:10:42.977Z,16.13
2018-12-30T21:13:30.973Z,16.15
2018-12-30T21:16:18.941Z,17.30
2018-12-30T21:19:07.204Z,18.07
2018-12-30T21:21:55.584Z,17.82
2018-12-30T21:24:43.631Z,18.27
2018-12-30T21:27:31.942Z,19.27
2018-12-30T21:30:20.005Z,19.15
2018-12-30T21:33:07.991Z,19.02
2018-12-30T21:35:55.990Z,19.45
2018-12-30T21:38:44.023Z,19.57
2018-12-30T21:41:32.003Z,20.27
2018-12-30T21:44:20.121Z,20.30
2018-12-30T21:47:01.364Z,20.95
2018-12-30T21:49:42.118Z,22.15
2018-12-30T21:52:23.106Z,22.55
2018-12-30T21:55:04.029Z,22.95
2018-12-30T21:57:45.145Z,23.07
2018-12-30T22:00:25.914Z,23.10
2018-12-30T22:03:06.336Z,24.27
2018-12-30T22:05:46.824Z,23.22
2018-12-30T22:08:27.474Z,24.87
2018-12-30T22:11:08.270Z,25.02
2018-12-30T22:13:48.868Z,25.17
2018-12-30T22:16:29.722Z,26.23
2018-12-30T22:19:10.891Z,25.80
2018-12-30T22:21:52.221Z,24.92
2018-12-30T22:24:33.145Z,25.25
2018-12-30T22:27:14.051Z,25.80
2018-12-30T22:29:54.796Z,25.75
2018-12-30T22:32:35.426Z,25.92
2018-12-30T22:35:16.151Z,25.93
2018-12-30T22:37:56.985Z,25.05
2018-12-30T22:40:37.811Z,24.63
2018-12-30T22:43:18.637Z,25.10
2018-12-30T22:45:59.455Z,24.05
2018-12-30T22:48:40.329Z,24.37
2018-12-30T22:51:21.140Z,21.77
2018-12-30T22:54:01.896Z,22.50
2018-12-30T22:56:42.956Z,21.35
2018-12-30T22:59:24.338Z,22.02
2018-12-30T23:02:05.326Z,21.60
2018-12-30T23:04:45.755Z,21.20
2018-12-30T23:07:26.685Z,21.93
2018-12-30T23:10:06.954Z,20.88
2018-12-30T23:12:47.657Z,21.30
2018-12-30T23:15:28.027Z,21.30
2018-12-30T23:18:08.665Z,22.15
2018-12-30T23:20:49.794Z,22.60
2018-12-30T23:23:30.313Z,23.77
2018-12-30T23:26:10.963Z,23.25
2018-12-30T23:28:51.761Z,23.55
2018-12-30T23:31:32.688Z,22.87
2018-12-30T23:34:13.748Z,23.83
2018-12-30T23:36:54.944Z,22.90
2018-12-30T23:39:35.719Z,23.47
2018-12-30T23:42:16.225Z,25.97
2018-12-30T23:44:57.396Z,26.90
2018-12-30T23:47:38.182Z,27.15
2018-12-30T23:50:19.285Z,27.62
2018-12-30T23:52:59.880Z,27.15
2018-12-30T23:55:41.433Z,29.30
2018-12-30T23:58:22.517Z,29.27
